Pagrindinis puslapis
METAR-TAF:

METAR-TAF

Oro uostai :

Monte Scuro, Italija

platuma: 39-20N, ilguma: 016-24E, Aukštis: 1710 m

Dabartinis oras

Ataskaita buvo paskelbta 32 minutes, ne 18:55 UTC
Vėjas 2 kt nuo kintamojo kryptimis
Temperatūra 7°C
Drėgmė 81%
Slėgis 1015 hPa
Matomumas 10 km arba daugiau
Su prošvaistėmis ne aukštis 500 ft

METAR: LIBQ 301855Z VRB02KT 9999 BKN005 07/04 Q1015 RMK BKN MON LIB VAL NIL VIS MIN 9999

Laikas: 21:27 (19:27 UTC)


TAF: trūkstamas

Orai ataskaitas ir orų prognozės (METAR, TAF).

turimą stotys yra geltonos ir raudonos taškus žemėlapyje.

Perkelti pele per norėdami pamatyti stoties vardą.

Tada spustelėkite, norėdami matyti oro stebėjimo ir prognozės.

Norėdami pakeisti žemėlapį: spustelėkite ant žalios mygtukų su juodo kryžiaus žemyn,; žalią mygtuką su brūkšneliu, jei norite nutolinti; arba žalių rodyklių gretimoms žemėlapius.


METAR-TAF: